Flight Track Log - Related Links

Times and Time Zones

All times are in EDT time to prevent confusion due to time zone crossing. See the AAY136 flight status page for this flight to view local times or setup timezone preferences in your user account.

Time Position Orientation Groundspeed Altitude Reporting Facility
EDT Latitude Longitude Course Direction KTS MPH feet Rate Location/Type
Wed 01:35:22 PM 33.3230 -111.6710 317° Northwest 184 212 2,300  Level FlightAware ADS-B
Wed 01:35:32 PM 33.3290 -111.6740 337° Northwest 186 214 2,700 2,133 Climbing FlightAware ADS-B
Wed 01:36:07 PM 33.3580 -111.6440 41° Northeast 235 270 3,900 1,300 Climbing FlightAware ADS-B
Wed 01:36:32 PM 33.3530 -111.6200 104° East 231 266 4,000 327 Climbing FlightAware ADS-B
Wed 01:37:02 PM 33.3350 -111.5950 131° Southeast 228 262 4,200 1,418 Climbing FlightAware ADS-B
Wed 01:37:27 PM 33.3190 -111.5720 130° Southeast 241 277 5,300 3,067 Climbing FlightAware ADS-B
Wed 01:37:47 PM 33.3110 -111.5440 109° East 239 275 6,500 3,067 Climbing FlightAware ADS-B
Wed 01:38:12 PM 33.3270 -111.5080 62° Northeast 247 284 7,600 2,850 Climbing FlightAware ADS-B
Wed 01:38:27 PM 33.3420 -111.4960 34° Northeast 253 291 8,400 2,550 Climbing FlightAware ADS-B
Wed 01:38:52 PM 33.3700 -111.4780 28° Northeast 273 314 9,300 1,800 Climbing FlightAware ADS-B
Wed 01:39:17 PM 33.3990 -111.4740 North 286 329 9,900 943 Climbing FlightAware ADS-B
Wed 01:40:02 PM 33.4620 -111.4760 358° North 293 337 10,400 1,059 Climbing FlightAware ADS-B
Wed 01:40:42 PM 33.5200 -111.4980 342° North 339 390 11,400 1,976 Climbing FlightAware ADS-B
Wed 01:41:27 PM 33.5830 -111.5250 340° North 354 407 13,200 2,400 Climbing FlightAware ADS-B
Wed 01:41:57 PM 33.6310 -111.5460 340° North 361 415 14,400 2,743 Climbing FlightAware ADS-B
Wed 01:42:37 PM 33.6950 -111.5740 340° North 363 418 16,400 2,775 Climbing FlightAware ADS-B
Wed 01:43:17 PM 33.7610 -111.6020 341° North 368 423 18,100 2,329 Climbing FlightAware ADS-B
Wed 01:44:02 PM 33.8360 -111.6340 340° North 384 442 19,700 2,400 Climbing FlightAware ADS-B
Wed 01:44:42 PM 33.9030 -111.6630 340° North 383 441 21,500 2,329 Climbing FlightAware ADS-B
Wed 01:45:27 PM 33.9810 -111.6880 345° North 397 457 23,000 1,694 Climbing FlightAware ADS-B
Wed 01:46:07 PM 34.0490 -111.6960 354° North 413 475 23,900 1,629 Climbing FlightAware ADS-B
Wed 01:46:37 PM 34.1120 -111.6920 North 424 488 24,900 1,886 Climbing FlightAware ADS-B
Wed 01:47:17 PM 34.1860 -111.6600 20° North 441 507 26,100 1,875 Climbing FlightAware ADS-B
Wed 01:47:57 PM 34.2510 -111.6010 37° Northeast 445 512 27,400 1,624 Climbing FlightAware ADS-B
Wed 01:48:42 PM 34.3260 -111.5330 37° Northeast 455 524 28,400 1,326 Climbing FlightAware ADS-B
Wed 01:49:32 PM 34.4050 -111.4620 37° Northeast 461 531 29,500 1,326 Climbing FlightAware ADS-B
Wed 01:50:17 PM 34.4790 -111.3940 37° Northeast 466 536 30,500 1,624 Climbing FlightAware ADS-B
Wed 01:50:57 PM 34.5510 -111.3280 37° Northeast 463 533 31,800 1,765 Climbing FlightAware ADS-B
Wed 01:51:42 PM 34.6270 -111.2580 37° Northeast 459 528 33,000 1,482 Climbing FlightAware ADS-B
Wed 01:52:22 PM 34.6930 -111.1970 37° Northeast 461 531 33,900 1,200 Climbing FlightAware ADS-B
Wed 01:53:07 PM 34.7600 -111.1360 37° Northeast 461 531 34,700 776 Climbing FlightAware ADS-B
Wed 01:53:47 PM 34.8370 -111.0650 37° Northeast 462 532 35,000 212 Climbing FlightAware ADS-B
Wed 01:54:32 PM 34.9080 -110.9990 37° Northeast 463 533 35,000  Level FlightAware ADS-B
Wed 01:55:12 PM 34.9790 -110.9330 37° Northeast 464 534 35,000  Level FlightAware ADS-B
Wed 01:55:52 PM 35.0520 -110.8650 37° Northeast 467 537 35,000  Level FlightAware ADS-B
Wed 01:56:32 PM 35.1190 -110.8030 37° Northeast 469 540 35,000  Level FlightAware ADS-B
Wed 01:57:17 PM 35.2070 -110.7210 37° Northeast 473 544 35,000  Level FlightAware ADS-B
Wed 01:57:52 PM 35.2500 -110.6810 37° Northeast 473 544 35,000  Level FlightAware ADS-B
Wed 01:58:37 PM 35.3290 -110.6060 38° Northeast 472 543 35,000  Level FlightAware ADS-B
Wed 01:59:17 PM 35.4010 -110.5390 37° Northeast 472 543 35,000  Level FlightAware ADS-B
Wed 01:59:57 PM 35.4600 -110.4840 37° Northeast 472 543 35,000 480 Level FlightAware ADS-B
Wed 02:00:57 PM 35.5650 -110.3850 37° Northeast 474 545 35,800 480 Climbing FlightAware ADS-B
Wed 02:01:37 PM 35.6250 -110.3300 37° Northeast 474 545 35,800  Level FlightAware ADS-B
Wed 02:02:17 PM 35.6840 -110.2750 37° Northeast 474 545 35,800  Level FlightAware ADS-B
Wed 02:02:57 PM 35.7440 -110.2190 37° Northeast 474 545 35,800  Level FlightAware ADS-B
Wed 02:03:37 PM 35.8030 -110.1640 37° Northeast 474 545 35,800  Level FlightAware ADS-B
Wed 02:04:17 PM 35.8630 -110.1090 37° Northeast 474 545 35,800  Level FlightAware ADS-B
Wed 02:05:07 PM 35.9370 -110.0390 37° Northeast 474 545 35,800  Level FlightAware ADS-B
Wed 02:05:47 PM 35.9970 -109.9840 37° Northeast 474 545 35,800  Level FlightAware ADS-B
Wed 02:06:27 PM 36.0560 -109.9280 37° Northeast 474 545 35,800  Level FlightAware ADS-B
Wed 02:07:07 PM 36.1160 -109.8730 37° Northeast 474 545 35,800  Level FlightAware ADS-B
Wed 02:07:57 PM 36.1900 -109.8030 37° Northeast 474 545 35,800  Level FlightAware ADS-B
Wed 02:08:37 PM 36.2500 -109.7480 36° Northeast 474 545 35,800  Level FlightAware ADS-B
Wed 02:09:17 PM 36.3090 -109.6920 37° Northeast 474 545 35,800  Level FlightAware ADS-B
Wed 02:09:57 PM 36.3690 -109.6360 37° Northeast 474 545 35,800 878 Level FlightAware ADS-B
Wed 02:10:39 PM 36.5639 -109.4231 37° Northeast 471 542 37,000 692 Climbing Denver Center
Wed 02:11:41 PM 36.6644 -109.3242 38° Northeast 476 548 37,000  Level Denver Center
Wed 02:12:42 PM 36.7633 -109.2267 38° Northeast 472 543 37,000  Level Denver Center
Wed 02:13:44 PM 36.8800 -109.1111 38° Northeast 477 549 37,000  Level Denver Center
Wed 02:14:45 PM 36.9631 -109.0292 38° Northeast 476 548 37,000  Level Denver Center
Wed 02:15:48 PM 37.0956 -108.8969 39° Northeast 475 547 37,000  Level Denver Center
Wed 02:16:49 PM 37.1950 -108.7983 38° Northeast 474 545 37,000  Level Denver Center
Wed 02:17:51 PM 37.3117 -108.6814 39° Northeast 480 552 37,000  Level Denver Center
Wed 02:18:53 PM 37.4117 -108.5814 38° Northeast 480 552 37,000  Level Denver Center
Wed 02:24:57 PM 38.0350 -107.9460 38° Northeast 483 556 37,000  Level FlightAware ADS-B
Wed 02:25:32 PM 38.0990 -107.8800 39° Northeast 493 567 37,000  Level FlightAware ADS-B
Wed 02:26:17 PM 38.1730 -107.8030 39° Northeast 493 567 37,000  Level FlightAware ADS-B
Wed 02:26:57 PM 38.2340 -107.7410 39° Northeast 493 567 37,000  Level FlightAware ADS-B
Wed 02:27:37 PM 38.3200 -107.6510 39° Northeast 486 559 37,000  Level FlightAware ADS-B
Wed 02:28:17 PM 38.3940 -107.5740 39° Northeast 484 557 37,000  Level FlightAware ADS-B
Wed 02:29:07 PM 38.4710 -107.4930 39° Northeast 483 556 37,000  Level FlightAware ADS-B
Wed 02:29:47 PM 38.5300 -107.4320 39° Northeast 483 556 37,000  Level FlightAware ADS-B
Wed 02:29:56 PM 38.5780 -107.3810 40° Northeast 502 578 37,000  Level FlightAware ADS-B
Wed 02:30:32 PM 38.6300 -107.3260 40° Northeast 500 575 37,000  Level FlightAware ADS-B
Wed 02:30:41 PM 38.6576 -107.2970 39° Northeast 499 574 37,000  Level FlightAware ADS-B
Wed 02:31:12 PM 38.7127 -107.2390 39° Northeast 500 575 37,000  Level FlightAware ADS-B
Wed 02:31:42 PM 38.7675 -107.1810 40° Northeast 501 577 37,000  Level FlightAware ADS-B
Wed 02:32:13 PM 38.8221 -107.1230 40° Northeast 502 578 37,000 98 Level FlightAware ADS-B
Wed 02:32:43 PM 38.8767 -107.0650 40° Northeast 500 575 37,100  Climbing FlightAware ADS-B
Wed 02:33:24 PM 38.9489 -106.9880 40° Northeast 499 574 37,000 -76 Descending FlightAware ADS-B
Wed 02:34:02 PM 39.0161 -106.9170 39° Northeast 501 577 37,000  Level FlightAware ADS-B
Wed 02:34:33 PM 39.0708 -106.8580 40° Northeast 501 577 37,000  Level FlightAware ADS-B
Wed 02:35:03 PM 39.1253 -106.8000 40° Northeast 501 577 37,000  Level FlightAware ADS-B
Wed 02:35:34 PM 39.1798 -106.7410 40° Northeast 501 577 37,000  Level FlightAware ADS-B
Wed 02:36:05 PM 39.2353 -106.6810 40° Northeast 505 581 37,000  Level FlightAware ADS-B
Wed 02:36:36 PM 39.2897 -106.6220 40° Northeast 509 586 37,000 98 Level FlightAware ADS-B
Wed 02:37:06 PM 39.3426 -106.5650 40° Northeast 511 588 37,100 100 Climbing FlightAware ADS-B
Wed 02:37:36 PM 39.3990 -106.5040 40° Northeast 508 585 37,100  Level FlightAware ADS-B
Wed 02:38:07 PM 39.4545 -106.4430 40° Northeast 508 585 37,100 -95 Level FlightAware ADS-B
Wed 02:38:39 PM 39.5112 -106.3820 40° Northeast 508 585 37,000 -97 Descending FlightAware ADS-B
Wed 02:39:09 PM 39.5655 -106.3230 40° Northeast 510 587 37,000  Level FlightAware ADS-B
Wed 02:39:39 PM 39.6204 -106.2630 40° Northeast 511 588 37,000  Level FlightAware ADS-B
Wed 02:40:13 PM 39.6814 -106.1960 40° Northeast 511 588 37,000  Level FlightAware ADS-B
Wed 02:40:44 PM 39.7369 -106.1350 40° Northeast 510 587 37,000  Level FlightAware ADS-B
Wed 02:41:14 PM 39.7909 -106.0760 40° Northeast 513 590 37,000  Level FlightAware ADS-B
Wed 02:41:44 PM 39.8462 -106.0150 40° Northeast 515 593 37,000  Level FlightAware ADS-B
Wed 02:42:15 PM 39.9013 -105.9540 40° Northeast 517 595 37,000  Level FlightAware ADS-B
Wed 02:42:48 PM 39.9612 -105.8880 40° Northeast 518 596 37,000  Level FlightAware ADS-B
Wed 02:43:22 PM 40.0234 -105.8190 40° Northeast 518 596 37,000  Level FlightAware ADS-B
Wed 02:43:52 PM 40.0740 -105.7630 40° Northeast 518 596 37,000  Level FlightAware ADS-B
Wed 02:43:58 PM 40.0887 -105.7460 41° Northeast 518 596 37,000  Level FlightAware ADS-B
Wed 02:44:32 PM 40.1460 -105.6820 40° Northeast 518 596 37,000  Level FlightAware ADS-B
Wed 02:44:41 PM 40.1676 -105.6580 40° Northeast 518 596 37,000  Level FlightAware ADS-B
Wed 02:45:18 PM 40.2341 -105.5840 40° Northeast 517 595 37,000  Level FlightAware ADS-B
Wed 02:45:57 PM 40.3030 -105.5060 41° Northeast 511 588 37,000 103 Level FlightAware ADS-B
Wed 02:46:16 PM 40.3397 -105.4650 40° Northeast 512 589 37,100  Climbing FlightAware ADS-B
Wed 02:46:47 PM 40.3944 -105.4030 41° Northeast 510 587 37,000 -97 Descending FlightAware ADS-B
Wed 02:47:18 PM 40.4500 -105.3400 41° Northeast 510 587 37,000  Level FlightAware ADS-B
Wed 02:47:54 PM 40.5148 -105.2670 41° Northeast 511 588 37,000  Level FlightAware ADS-B
Wed 02:48:24 PM 40.5671 -105.2080 41° Northeast 510 587 37,000  Level FlightAware ADS-B
Wed 02:48:56 PM 40.6243 -105.1420 41° Northeast 511 588 37,000  Level FlightAware ADS-B
Wed 02:49:26 PM 40.6783 -105.0800 41° Northeast 511 588 37,000  Level FlightAware ADS-B
Wed 02:49:57 PM 40.7333 -105.0180 40° Northeast 513 590 37,000  Level FlightAware ADS-B
Wed 02:50:27 PM 40.7875 -104.9560 41° Northeast 514 592 37,000  Level FlightAware ADS-B
Wed 02:50:57 PM 40.8418 -104.8930 41° Northeast 514 592 37,000  Level FlightAware ADS-B
Wed 02:51:28 PM 40.8961 -104.8310 41° Northeast 515 593 37,000  Level FlightAware ADS-B
Wed 02:51:58 PM 40.9504 -104.7680 41° Northeast 517 595 37,000  Level FlightAware ADS-B
Wed 02:52:28 PM 41.0049 -104.7050 41° Northeast 519 597 37,000  Level FlightAware ADS-B
Wed 02:53:06 PM 41.0736 -104.6260 41° Northeast 520 598 37,000  Level FlightAware ADS-B
Wed 02:53:37 PM 41.1288 -104.5620 41° Northeast 521 600 37,000  Level FlightAware ADS-B
Wed 02:54:07 PM 41.1828 -104.4990 41° Northeast 520 598 37,000  Level FlightAware ADS-B
Wed 02:54:37 PM 41.2371 -104.4350 42° Northeast 521 600 37,000  Level FlightAware ADS-B
Wed 02:55:07 PM 41.2918 -104.3710 41° Northeast 522 601 37,000  Level FlightAware ADS-B
Wed 02:55:39 PM 41.3490 -104.3040 41° Northeast 523 602 37,000  Level FlightAware ADS-B
Wed 02:56:09 PM 41.4019 -104.2420 41° Northeast 521 600 37,000  Level FlightAware ADS-B
Wed 02:56:39 PM 41.4587 -104.1750 41° Northeast 520 598 37,000  Level FlightAware ADS-B
Wed 02:57:10 PM 41.5134 -104.1110 41° Northeast 519 597 37,000  Level FlightAware ADS-B
Wed 02:57:40 PM 41.5679 -104.0460 42° Northeast 521 600 37,000  Level FlightAware ADS-B
Wed 02:58:11 PM 41.6228 -103.9810 42° Northeast 523 602 37,000  Level FlightAware ADS-B
Wed 02:58:41 PM 41.6776 -103.9160 42° Northeast 524 603 37,000  Level FlightAware ADS-B
Wed 02:59:16 PM 41.7417 -103.8390 42° Northeast 526 605 37,000  Level FlightAware ADS-B
Wed 02:59:47 PM 41.7978 -103.7720 42° Northeast 527 606 37,000  Level FlightAware ADS-B
Wed 03:00:18 PM 41.8536 -103.7050 42° Northeast 530 610 37,000  Level FlightAware ADS-B
Wed 03:00:48 PM 41.9085 -103.6390 42° Northeast 532 612 37,000  Level FlightAware ADS-B
Wed 03:01:20 PM 41.9664 -103.5690 42° Northeast 533 613 37,000  Level FlightAware ADS-B
Wed 03:01:50 PM 42.0228 -103.5010 42° Northeast 535 616 37,000 91 Level FlightAware ADS-B
Wed 03:02:26 PM 42.0889 -103.4210 42° Northeast 534 615 37,100 90 Climbing FlightAware ADS-B
Wed 03:02:57 PM 42.1442 -103.3540 42° Northeast 534 615 37,100 -74 Level FlightAware ADS-B
Wed 03:03:47 PM 42.2365 -103.2420 42° Northeast 533 613 37,000 -73 Descending FlightAware ADS-B
Wed 03:04:19 PM 42.2942 -103.1710 42° Northeast 533 613 37,000  Level FlightAware ADS-B
Wed 03:04:49 PM 42.3497 -103.1030 42° Northeast 532 612 37,000  Level FlightAware ADS-B
Wed 03:05:22 PM 42.4030 -103.0370 42° Northeast 531 611 37,000  Level FlightAware ADS-B
Wed 03:05:36 PM 42.4321 -103.0020 42° Northeast 532 612 37,000  Level FlightAware ADS-B
Wed 03:06:06 PM 42.4892 -102.9310 43° Northeast 532 612 37,000  Level FlightAware ADS-B
Wed 03:06:36 PM 42.5442 -102.8630 42° Northeast 532 612 37,000  Level FlightAware ADS-B
Wed 03:07:35 PM 42.6501 -102.7310 42° Northeast 529 609 37,000  Level FlightAware ADS-B
Wed 03:08:05 PM 42.7039 -102.6640 42° Northeast 530 610 37,000  Level FlightAware ADS-B
Wed 03:08:36 PM 42.7597 -102.5950 42° Northeast 529 609 37,000  Level FlightAware ADS-B
Wed 03:09:07 PM 42.7928 -102.5531 42° Northeast 530 610 37,000  Level Minneapolis Center
Wed 03:09:38 PM 42.8542 -102.4753 43° Northeast 529 609 37,000  Level Denver Center
Wed 03:10:40 PM 42.9756 -102.3222 43° Northeast 533 613 37,000  Level Denver Center
Wed 03:11:41 PM 43.0625 -102.2136 42° Northeast 533 613 37,000  Level Denver Center
Wed 03:12:43 PM 43.2017 -102.0375 43° Northeast 536 617 37,000  Level Denver Center
Wed 03:13:45 PM 43.3044 -101.9022 44° Northeast 538 619 37,000  Level Denver Center
Wed 03:14:47 PM 43.4008 -101.7794 43° Northeast 535 616 37,000  Level Denver Center
Wed 03:15:49 PM 43.5317 -101.6106 43° Northeast 537 618 37,000  Level Denver Center
Wed 03:16:51 PM 43.6408 -101.4694 43° Northeast 537 618 37,000 -49 Level Denver Center
Wed 03:17:52 PM 43.7494 -101.3264 44° Northeast 541 623 36,900 -457 Descending Denver Center
Wed 03:18:23 PM 43.8158 -101.2408 43° Northeast 541 623 36,300 -587 Descending Minneapolis Center
Wed 03:19:24 PM 43.9250 -101.0978 43° Northeast 542 624 36,000 -146 Descending Minneapolis Center
Wed 03:20:26 PM 44.0325 -100.9533 44° Northeast 540 621 36,000  Level Minneapolis Center
Wed 03:21:28 PM 44.1411 -100.8092 44° Northeast 540 621 36,000 49 Level Minneapolis Center
Wed 03:22:29 PM 44.2503 -100.6628 44° Northeast 543 625 36,100  Climbing Minneapolis Center
Wed 03:23:31 PM 44.3578 -100.5169 44° Northeast 542 624 36,000 -48 Descending Minneapolis Center
Wed 03:24:33 PM 44.4675 -100.3711 43° Northeast 543 625 36,000  Level Minneapolis Center
Wed 03:25:34 PM 44.5969 -100.1939 44° Northeast 544 626 36,000  Level Minneapolis Center
Wed 03:26:36 PM 44.7061 -100.0456 44° Northeast 546 628 36,000  Level Minneapolis Center
Wed 03:27:38 PM 44.8136 -99.8969 44° Northeast 548 631 36,000  Level Minneapolis Center
Wed 03:28:40 PM 44.9206 -99.7481 45° Northeast 551 634 36,000  Level Minneapolis Center
Wed 03:29:41 PM 45.0275 -99.5986 45° Northeast 552 635 36,000 -537 Level Minneapolis Center
Wed 03:30:43 PM 45.1581 -99.4167 44° Northeast 553 636 34,900 -1,306 Descending Minneapolis Center
Wed 03:31:45 PM 45.2664 -99.2633 45° Northeast 554 638 33,300 -1,268 Descending Minneapolis Center
Wed 03:32:46 PM 45.3769 -99.1078 45° Northeast 558 642 32,300 -976 Descending Minneapolis Center
Wed 03:33:48 PM 45.4842 -98.9550 45° Northeast 551 634 31,300 -1,452 Descending Minneapolis Center
Wed 03:34:50 PM 45.5900 -98.8089 44° Northeast 538 619 29,300 -1,902 Descending Minneapolis Center
Wed 03:35:51 PM 45.6889 -98.6661 45° Northeast 516 594 27,400 -1,902 Descending Minneapolis Center
Wed 03:36:53 PM 45.7858 -98.5272 45° Northeast 499 574 25,400 -1,645 Descending Minneapolis Center
Wed 03:37:55 PM 45.8992 -98.3617 45° Northeast 488 562 24,000 -1,065 Descending Minneapolis Center
Wed 03:38:57 PM 45.9928 -98.2200 46° Northeast 488 562 23,200 -1,268 Descending Minneapolis Center
Wed 03:39:58 PM 46.0656 -98.0911 51° Northeast 483 556 21,400 -2,049 Descending Minneapolis Center
Wed 03:41:00 PM 46.1678 -97.9208 49° Northeast 472 543 19,000 -1,790 Descending Minneapolis Center
Wed 03:42:02 PM 46.2464 -97.7931 48° Northeast 442 509 17,700 -1,610 Descending Minneapolis Center
Wed 03:43:03 PM 46.3192 -97.6658 50° Northeast 407 468 15,700 -1,756 Descending Minneapolis Center
Wed 03:44:05 PM 46.3917 -97.5439 49° Northeast 381 438 14,100 -1,548 Descending Minneapolis Center
Wed 03:45:07 PM 46.4556 -97.4358 49° Northeast 343 395 12,500 -1,742 Descending Minneapolis Center
Wed 03:46:09 PM 46.5186 -97.3297 49° Northeast 333 383 10,500 -1,512 Descending Minneapolis Center
Wed 03:47:10 PM 46.5656 -97.2339 55° Northeast 304 350 9,400 -1,268 Descending Minneapolis Center
Wed 03:48:12 PM 46.6122 -97.1372 55° Northeast 284 327 7,900 -1,561 Descending Minneapolis Center
Wed 03:49:13 PM 46.6583 -97.0431 54° Northeast 276 318 6,200 -1,317 Descending Minneapolis Center
Wed 03:50:15 PM 46.7000 -96.9586 54° Northeast 244 281 5,200 -871 Descending Minneapolis Center
Wed 03:51:17 PM 46.7356 -96.8861 54° Northeast 215 247 4,400 -878 Descending Minneapolis Center
Wed 03:52:18 PM 46.7681 -96.8361 46° Northeast 183 211 3,400 -732 Descending Minneapolis Center
Wed 03:53:20 PM 46.8125 -96.8172 16° North 161 185 2,900 -683 Descending Minneapolis Center
Wed 03:54:21 PM 46.8531 -96.8172 360° North 141 162 2,000 -732 Descending Minneapolis Center
Wed 03:55:23 PM 46.8839 -96.8164 North 111 128 1,400 -581 Descending Minneapolis Center
Wed 03:57:00 PM 46.9167 -96.8000 46° Northeast  Level FlightAware Approximate
Wed 04:04:00 PM 46.9207 -96.8158 46° Northeast  Level Estimated

Login

Don't have an account? Register now (free) for customized features, flight alerts, and more!